1922 NOT_NAMED (1922128N17131)


IBTrACS version v04r00. Visit IBTrACS website for data access.
Please direct all questions to the IBTrACS Q and A forum

Storm track - Intensity - Wind Radii - Intensity Data - Source Data - All data

Summary Information

Storm ID 1922128N17131
Start May 7 22Z
End May 9 22Z
ATCF IDs
Track status Best track data.

Storm track plot

Map of storm track

Intensity plots

No Intensity information for this storm


Radial wind information

No radial wind information for this storm


Position and Intensity Table

BASIN ISO_TIME_________ NATURE LAT LON
degrees north degrees east
WP 1922-05-07 22:00:00 NR 16.80 131.40
WP 1922-05-08 00:00:00 NR 16.81 131.29
WP 03:00:00 NR 16.82 131.12
WP 06:00:00 NR 16.85 130.95
WP 09:00:00 NR 16.88 130.76
WP 10:00:00 NR 16.90 130.70
WP 12:00:00 NR 16.94 130.57
WP 15:00:00 NR 17.01 130.37
WP 18:00:00 NR 17.09 130.16
WP 21:00:00 NR 17.17 129.96
WP 22:00:00 NR 17.20 129.90
WP 1922-05-09 00:00:00 NR 17.25 129.78
WP 03:00:00 NR 17.33 129.61
WP 06:00:00 NR 17.41 129.44
WP 09:00:00 NR 17.48 129.26
WP 10:00:00 NR 17.50 129.20
WP 12:00:00 NR 17.54 129.08
WP 15:00:00 NR 17.59 128.88
WP 18:00:00 NR 17.64 128.68
WP 21:00:00 NR 17.69 128.47
WP 22:00:00 NR 17.70 128.40

Source Information

Agency Information
USA
TOKYO
CMA
HKO
NEWDELHI
REUNION
BOM
NADI
WELLINGTON
DS824
TD9636 cons_worldwide_trop_cyclone_18710101-19891231-003:Line=6614
TD9635
NEUMANN
MLC

All available IBTrACS Data

SEASON BASIN SUBBASIN ISO_TIME_________ NATURE LAT LON DIST2LAND LANDFALL IFLAG USA SSHS TD9636 LAT TD9636 LON TD9636 STAGE STORM SPEED STORM DIR
Year degrees north degrees east km km 1 degrees north degrees east kts degrees
1922 WP MM 1922-05-07 22:00:00 NR 16.80 131.40 817 808 __________O___ -1 16.80 131.40 7 3 274
1922 WP MM 1922-05-08 00:00:00 NR 16.81 131.29 808 788 __________P___ -1 16.81 131.29 7 3 275
1922 WP MM 03:00:00 NR 16.82 131.12 788 769 __________P___ -1 16.82 131.12 7 3 277
1922 WP MM 06:00:00 NR 16.85 130.95 769 764 __________P___ -1 16.85 130.95 7 3 280
1922 WP MM 09:00:00 NR 16.88 130.76 764 754 __________P___ -1 16.88 130.76 7 4 283
1922 WP MM 10:00:00 NR 16.90 130.70 754 744 __________O___ -1 16.90 130.70 7 4 286
1922 WP MM 12:00:00 NR 16.94 130.57 744 730 __________P___ -1 16.94 130.57 7 4 289
1922 WP MM 15:00:00 NR 17.01 130.37 730 717 __________P___ -1 17.01 130.37 7 4 291
1922 WP MM 18:00:00 NR 17.09 130.16 717 698 __________P___ -1 17.09 130.16 7 4 293
1922 WP MM 21:00:00 NR 17.17 129.96 704 695 __________P___ -1 17.17 129.96 7 4 294
1922 WP MM 22:00:00 NR 17.20 129.90 695 686 __________O___ -1 17.20 129.90 7 4 294
1922 WP MM 1922-05-09 00:00:00 NR 17.25 129.78 692 674 __________P___ -1 17.25 129.78 7 4 295
1922 WP MM 03:00:00 NR 17.33 129.61 674 663 __________P___ -1 17.33 129.61 7 4 295
1922 WP MM 06:00:00 NR 17.41 129.44 663 654 __________P___ -1 17.41 129.44 7 4 294
1922 WP MM 09:00:00 NR 17.48 129.26 661 653 __________P___ -1 17.48 129.26 7 4 293
1922 WP MM 10:00:00 NR 17.50 129.20 653 644 __________O___ -1 17.50 129.20 7 4 289
1922 WP MM 12:00:00 NR 17.54 129.08 644 635 __________P___ -1 17.54 129.08 7 4 287
1922 WP MM 15:00:00 NR 17.59 128.88 635 619 __________P___ -1 17.59 128.88 7 4 285
1922 WP MM 18:00:00 NR 17.64 128.68 619 611 __________P___ -1 17.64 128.68 7 4 283
1922 WP MM 21:00:00 NR 17.69 128.47 611 603 __________P___ -1 17.69 128.47 7 4 283
1922 WP MM 22:00:00 NR 17.70 128.40 603 __________O___ -1 17.70 128.40 7 4 282